createdAt,value
2023-01-18T00:01:04.467Z,97743.44
2023-01-18T00:03:36.660Z,97745.28
2023-01-18T00:06:06.383Z,97736.03
2023-01-18T00:08:35.218Z,97739.53
2023-01-18T00:11:05.992Z,97740.81
2023-01-18T00:13:35.393Z,97738.63
2023-01-18T00:16:07.901Z,97741.91
2023-01-18T00:18:38.189Z,97732.09
2023-01-18T00:21:08.156Z,97729.97
2023-01-18T00:23:38.576Z,97732.22
2023-01-18T00:26:07.978Z,97726.03
2023-01-18T00:28:36.980Z,97721.47
2023-01-18T00:31:12.271Z,97722.91
2023-01-18T00:33:46.494Z,97714.34
2023-01-18T00:36:16.938Z,97715.44
2023-01-18T00:38:51.434Z,97712.53
2023-01-18T00:41:22.492Z,97725.47
2023-01-18T00:43:50.507Z,97732.38
2023-01-18T00:46:22.362Z,97727.41
2023-01-18T00:48:52.892Z,97727.41
2023-01-18T00:51:24.029Z,97729.97
2023-01-18T00:53:52.608Z,97729.81
2023-01-18T00:56:23.245Z,97726.34
2023-01-18T00:58:53.992Z,97728.19
2023-01-18T01:01:26.187Z,97733.31
2023-01-18T01:04:12.283Z,97738.59
2023-01-18T01:06:47.938Z,97744.44
2023-01-18T01:09:19.499Z,97738.06
2023-01-18T01:12:02.402Z,97739.53
2023-01-18T01:14:56.182Z,97745.00
2023-01-18T01:17:44.074Z,97747.00
2023-01-18T01:20:30.274Z,97746.44
2023-01-18T01:23:16.849Z,97739.38
2023-01-18T01:26:03.967Z,97751.38
2023-01-18T01:28:32.484Z,97754.97
2023-01-18T01:31:02.841Z,97764.63
2023-01-18T01:33:34.495Z,97762.84
2023-01-18T01:36:05.171Z,97767.22
2023-01-18T01:38:35.123Z,97773.78
2023-01-18T01:41:07.441Z,97773.97
2023-01-18T01:43:42.078Z,97775.78
2023-01-18T01:46:25.578Z,97775.63
2023-01-18T01:49:02.386Z,97781.78
2023-01-18T01:51:30.973Z,97779.81
2023-01-18T01:54:09.199Z,97776.34
2023-01-18T01:56:39.622Z,97786.88
2023-01-18T01:59:11.479Z,97785.44
2023-01-18T02:01:43.685Z,97790.50
2023-01-18T02:04:13.909Z,97798.88
2023-01-18T02:06:43.449Z,97804.34
2023-01-18T02:09:15.650Z,97811.13
2023-01-18T02:11:44.774Z,97808.75
2023-01-18T02:14:16.688Z,97817.13
2023-01-18T02:16:58.410Z,97825.13
2023-01-18T02:20:01.797Z,97829.69
2023-01-18T02:22:46.736Z,97833.28
2023-01-18T02:25:48.342Z,97834.75
2023-01-18T02:28:19.783Z,97827.28
2023-01-18T02:30:52.459Z,97831.66
2023-01-18T02:33:30.892Z,97832.38
2023-01-18T02:36:04.608Z,97837.13
2023-01-18T02:38:39.983Z,97836.00
2023-01-18T02:41:16.053Z,97845.81
2023-01-18T02:44:06.460Z,97853.66
2023-01-18T02:46:35.733Z,97858.94
2023-01-18T02:49:07.679Z,97862.03
2023-01-18T02:51:39.056Z,97854.56
2023-01-18T02:54:09.619Z,97860.94
2023-01-18T02:56:45.690Z,97871.09
2023-01-18T02:59:23.072Z,97862.22
2023-01-18T03:02:00.119Z,97865.50
2023-01-18T03:04:38.125Z,97863.50
2023-01-18T03:07:12.213Z,97861.09
2023-01-18T03:09:42.996Z,97875.31
2023-01-18T03:12:21.687Z,97871.28
2023-01-18T03:15:01.614Z,97878.91
2023-01-18T03:17:40.237Z,97884.34
2023-01-18T03:20:12.525Z,97883.84
2023-01-18T03:23:06.591Z,97880.00
2023-01-18T03:25:39.079Z,97886.19
2023-01-18T03:28:28.915Z,97887.81
2023-01-18T03:31:21.068Z,97896.00
2023-01-18T03:33:52.577Z,97886.00
2023-01-18T03:36:28.024Z,97896.72
2023-01-18T03:39:02.358Z,97899.81
2023-01-18T03:41:36.294Z,97900.72
2023-01-18T03:44:10.129Z,97906.16
2023-01-18T03:46:43.836Z,97900.34
2023-01-18T03:49:13.921Z,97910.19
2023-01-18T03:51:54.442Z,97920.38
2023-01-18T03:54:36.492Z,97924.88
2023-01-18T03:57:09.958Z,97931.44
2023-01-18T03:59:41.397Z,97934.53
2023-01-18T04:02:11.201Z,97936.34
2023-01-18T04:04:40.401Z,97935.44
2023-01-18T04:07:12.127Z,97937.06
2023-01-18T04:09:41.325Z,97940.50
2023-01-18T04:12:13.748Z,97942.34
2023-01-18T04:14:42.653Z,97946.88
2023-01-18T04:17:18.240Z,97946.88
2023-01-18T04:19:47.338Z,97953.59
2023-01-18T04:22:18.351Z,97960.66
2023-01-18T04:24:47.325Z,97961.97
2023-01-18T04:27:16.070Z,97958.69
2023-01-18T04:29:44.827Z,97958.34
2023-01-18T04:32:15.139Z,97958.69
2023-01-18T04:34:43.491Z,97959.06
2023-01-18T04:37:11.690Z,97972.31
2023-01-18T04:39:40.521Z,97975.44
2023-01-18T04:42:09.049Z,97971.97
2023-01-18T04:44:38.366Z,97981.25
2023-01-18T04:47:12.276Z,97987.78
2023-01-18T04:49:43.616Z,97990.50
2023-01-18T04:52:13.669Z,97984.34
2023-01-18T04:54:43.655Z,97981.41
2023-01-18T04:57:14.606Z,97993.03
2023-01-18T04:59:46.215Z,97991.59
2023-01-18T05:02:16.715Z,97993.41
2023-01-18T05:04:48.093Z,98001.41
2023-01-18T05:07:17.676Z,98005.41
2023-01-18T05:09:47.903Z,98017.78
2023-01-18T05:12:17.020Z,98017.59
2023-01-18T05:14:47.146Z,98024.31
2023-01-18T05:17:15.574Z,98031.97
2023-01-18T05:19:43.618Z,98034.69
2023-01-18T05:22:13.947Z,98045.41
2023-01-18T05:24:42.369Z,98051.25
2023-01-18T05:27:12.147Z,98044.50
2023-01-18T05:29:40.297Z,98052.50
2023-01-18T05:32:10.589Z,98051.22
2023-01-18T05:34:42.258Z,98047.94
2023-01-18T05:37:11.066Z,98065.75
2023-01-18T05:42:54.037Z,98072.47
2023-01-18T05:45:22.348Z,98073.00
2023-01-18T05:47:50.720Z,98079.19
2023-01-18T05:50:18.829Z,98076.13
2023-01-18T05:52:47.107Z,98082.66
2023-01-18T05:55:15.616Z,98081.75
2023-01-18T05:57:46.003Z,98084.81
2023-01-18T06:00:18.385Z,98092.28
2023-01-18T06:02:46.792Z,98089.03
2023-01-18T06:05:15.687Z,98105.72
2023-01-18T06:07:44.577Z,98119.91
2023-01-18T06:10:12.836Z,98118.28
2023-01-18T06:12:41.183Z,98115.00
2023-01-18T06:15:13.009Z,98125.56
2023-01-18T06:17:42.938Z,98134.81
2023-01-18T06:20:15.917Z,98128.47
2023-01-18T06:22:45.544Z,98134.09
2023-01-18T06:25:13.773Z,98143.53
2023-01-18T06:27:45.375Z,98144.66
2023-01-18T06:30:14.250Z,98154.47
2023-01-18T06:32:51.402Z,98156.63
2023-01-18T06:35:25.021Z,98166.41
2023-01-18T06:37:56.532Z,98174.44
2023-01-18T06:40:27.061Z,98173.34
2023-01-18T06:42:55.210Z,98178.44
2023-01-18T06:45:25.398Z,98174.78
2023-01-18T06:47:57.173Z,98180.78
2023-01-18T06:50:25.893Z,98181.31
2023-01-18T06:52:55.836Z,98194.06
2023-01-18T06:55:24.277Z,98187.72
2023-01-18T06:57:52.680Z,98200.59
2023-01-18T07:00:22.322Z,98202.41
2023-01-18T07:02:54.048Z,98204.41
2023-01-18T07:05:24.278Z,98209.34
2023-01-18T07:07:52.541Z,98212.94
2023-01-18T07:10:20.617Z,98218.03
2023-01-18T07:12:50.848Z,98220.78
2023-01-18T07:15:23.008Z,98228.59
2023-01-18T07:17:51.390Z,98235.66
2023-01-18T07:20:20.274Z,98227.47
2023-01-18T07:22:56.112Z,98232.19
2023-01-18T07:25:24.802Z,98234.41
2023-01-18T07:27:53.366Z,98242.94
2023-01-18T07:30:21.644Z,98250.91
2023-01-18T07:32:51.523Z,98257.66
2023-01-18T07:35:23.591Z,98256.03
2023-01-18T07:37:54.444Z,98265.84
2023-01-18T07:40:25.946Z,98273.69
2023-01-18T07:42:58.720Z,98283.88
2023-01-18T07:45:27.146Z,98285.75
2023-01-18T07:47:55.576Z,98285.91
2023-01-18T07:50:25.110Z,98285.56
2023-01-18T07:52:56.435Z,98292.28
2023-01-18T07:55:24.948Z,98299.41
2023-01-18T07:57:53.111Z,98306.50
2023-01-18T08:00:23.324Z,98304.34
2023-01-18T08:02:52.302Z,98307.44
2023-01-18T08:05:24.083Z,98307.66
2023-01-18T08:07:53.686Z,98311.69
2023-01-18T08:10:23.599Z,98321.50
2023-01-18T08:12:52.295Z,98328.63
2023-01-18T08:15:21.097Z,98336.44
2023-01-18T08:17:51.138Z,98343.38
2023-01-18T08:20:21.092Z,98344.50
2023-01-18T08:22:49.943Z,98349.94
2023-01-18T08:25:18.706Z,98353.19
2023-01-18T08:27:49.950Z,98349.22
2023-01-18T08:30:21.790Z,98361.38
2023-01-18T08:32:51.176Z,98365.75
2023-01-18T08:35:19.351Z,98370.72
2023-01-18T08:37:48.853Z,98371.09
2023-01-18T08:40:17.146Z,98375.28
2023-01-18T08:42:47.127Z,98382.97
2023-01-18T08:45:17.878Z,98388.44
2023-01-18T08:47:48.033Z,98391.19
2023-01-18T08:50:17.387Z,98391.59
2023-01-18T08:52:45.978Z,98404.16
2023-01-18T08:55:18.306Z,98406.50
2023-01-18T08:57:47.287Z,98413.44
2023-01-18T09:00:18.341Z,98416.03
2023-01-18T09:02:49.550Z,98414.59
2023-01-18T09:05:18.216Z,98416.03
2023-01-18T09:07:50.010Z,98423.69
2023-01-18T09:10:19.551Z,98441.56
2023-01-18T09:12:48.171Z,98439.00
2023-01-18T09:15:19.275Z,98435.38
2023-01-18T09:17:48.705Z,98438.66
2023-01-18T09:20:19.082Z,98453.97
2023-01-18T09:22:48.830Z,98458.75
2023-01-18T09:25:18.420Z,98457.50
2023-01-18T09:27:47.516Z,98471.91
2023-01-18T09:30:18.337Z,98474.81
2023-01-18T09:32:46.621Z,98472.28
2023-01-18T09:35:18.296Z,98481.75
2023-01-18T09:37:47.898Z,98490.69
2023-01-18T09:40:19.929Z,98497.25
2023-01-18T09:42:51.420Z,98502.72
2023-01-18T09:45:29.718Z,98508.56
2023-01-18T09:48:03.378Z,98512.56
2023-01-18T09:50:41.842Z,98521.31
2023-01-18T09:53:24.642Z,98522.25
2023-01-18T09:56:02.409Z,98529.19
2023-01-18T09:58:41.544Z,98526.06
2023-01-18T10:01:16.177Z,98531.72
2023-01-18T10:03:51.877Z,98526.59
2023-01-18T10:06:24.927Z,98534.06
2023-01-18T10:09:00.293Z,98532.78
2023-01-18T10:11:44.814Z,98537.19
2023-01-18T10:14:23.123Z,98546.31
2023-01-18T10:16:58.004Z,98549.41
2023-01-18T10:19:30.011Z,98553.75
2023-01-18T10:22:04.325Z,98555.78
2023-01-18T10:24:42.381Z,98552.84
2023-01-18T10:27:24.567Z,98562.34
2023-01-18T10:30:04.296Z,98560.16
2023-01-18T10:32:36.256Z,98556.13
2023-01-18T10:38:36.236Z,98566.16
2023-01-18T10:41:04.736Z,98557.56
2023-01-18T10:43:33.857Z,98563.06
2023-01-18T10:46:02.161Z,98561.97
2023-01-18T10:48:34.368Z,98575.53
2023-01-18T10:51:05.837Z,98575.69
2023-01-18T10:53:36.441Z,98579.34
2023-01-18T10:56:08.805Z,98581.31
2023-01-18T10:58:48.990Z,98574.63
2023-01-18T11:01:22.303Z,98576.59
2023-01-18T11:03:54.633Z,98577.50
2023-01-18T11:06:24.453Z,98582.25
2023-01-18T11:08:54.499Z,98588.28
2023-01-18T11:11:45.354Z,98585.91
2023-01-18T11:14:27.912Z,98582.06
2023-01-18T11:17:02.265Z,98591.75
2023-01-18T11:19:32.505Z,98584.97
2023-01-18T11:22:05.158Z,98591.19
2023-01-18T11:24:34.141Z,98590.81
2023-01-18T11:27:13.669Z,98587.69
2023-01-18T11:29:45.457Z,98590.03
2023-01-18T11:32:21.853Z,98586.03
2023-01-18T11:34:54.559Z,98592.22
2023-01-18T11:37:31.841Z,98600.81
2023-01-18T11:40:00.412Z,98605.41
2023-01-18T11:42:31.465Z,98605.53
2023-01-18T11:45:15.787Z,98609.56
2023-01-18T11:47:57.440Z,98607.91
2023-01-18T11:50:43.681Z,98615.03
2023-01-18T11:53:31.481Z,98616.84
2023-01-18T11:56:07.735Z,98613.72
2023-01-18T11:58:38.152Z,98619.66
2023-01-18T12:01:23.923Z,98627.13
2023-01-18T12:04:02.863Z,98627.50
2023-01-18T12:06:46.525Z,98626.56
2023-01-18T12:09:30.555Z,98625.47
2023-01-18T12:12:18.915Z,98636.81
2023-01-18T12:15:00.498Z,98644.09
2023-01-18T12:17:45.842Z,98644.63
2023-01-18T12:20:26.476Z,98636.41
2023-01-18T12:23:13.177Z,98646.94
2023-01-18T12:26:13.136Z,98648.78
2023-01-18T12:28:58.323Z,98654.69
2023-01-18T12:31:35.028Z,98655.34
2023-01-18T12:34:10.415Z,98659.41
2023-01-18T12:36:54.656Z,98663.78
2023-01-18T12:39:43.228Z,98669.06
2023-01-18T12:42:20.297Z,98681.28
2023-01-18T12:45:07.084Z,98676.78
2023-01-18T12:47:39.492Z,98682.19
2023-01-18T12:50:16.945Z,98678.31
2023-01-18T12:52:49.786Z,98680.06
2023-01-18T12:55:25.618Z,98680.72
2023-01-18T12:57:58.798Z,98685.84
2023-01-18T13:00:35.307Z,98689.25
2023-01-18T13:03:07.586Z,98696.34
2023-01-18T13:05:51.234Z,98690.75
2023-01-18T13:08:29.292Z,98690.16
2023-01-18T13:11:07.344Z,98693.94
2023-01-18T13:13:39.442Z,98697.28
2023-01-18T13:16:23.209Z,98699.84
2023-01-18T13:18:59.576Z,98706.16
2023-01-18T13:21:45.419Z,98707.53
2023-01-18T13:24:24.520Z,98719.75
2023-01-18T13:27:06.637Z,98720.31
2023-01-18T13:29:35.833Z,98726.50
2023-01-18T13:32:06.189Z,98725.44
2023-01-18T13:34:47.641Z,98725.81
2023-01-18T13:37:49.166Z,98733.25
2023-01-18T13:40:37.861Z,98743.00
2023-01-18T13:43:31.941Z,98741.44
2023-01-18T13:46:03.374Z,98752.97
2023-01-18T13:48:46.963Z,98752.03
2023-01-18T13:51:52.395Z,98751.13
2023-01-18T13:55:05.501Z,98766.34
2023-01-18T13:57:36.006Z,98761.94
2023-01-18T14:00:24.996Z,98760.84
2023-01-18T14:02:57.646Z,98760.31
2023-01-18T14:05:28.717Z,98768.34
2023-01-18T14:08:02.240Z,98772.38
2023-01-18T14:10:34.349Z,98773.50
2023-01-18T14:13:04.939Z,98776.03
2023-01-18T14:15:54.681Z,98792.66
2023-01-18T14:18:25.249Z,98798.84
2023-01-18T14:21:24.622Z,98798.31
2023-01-18T14:24:24.192Z,98802.88
2023-01-18T14:26:56.596Z,98820.25
2023-01-18T14:29:34.133Z,98818.03
2023-01-18T14:32:07.838Z,98829.69
2023-01-18T14:34:39.222Z,98830.59
2023-01-18T14:37:27.425Z,98832.81
2023-01-18T14:40:18.708Z,98839.56
2023-01-18T14:42:54.332Z,98856.16
2023-01-18T14:45:29.336Z,98850.84
2023-01-18T14:48:01.975Z,98859.66
2023-01-18T14:50:38.286Z,98863.94
2023-01-18T14:53:09.167Z,98869.84
2023-01-18T14:55:37.334Z,98875.28
2023-01-18T14:58:16.549Z,98879.44
2023-01-18T15:00:47.374Z,98882.34
2023-01-18T15:03:26.192Z,98884.88
2023-01-18T15:06:02.095Z,98889.78
2023-01-18T15:08:33.983Z,98897.91
2023-01-18T15:11:05.039Z,98900.72
2023-01-18T15:13:37.086Z,98894.34
2023-01-18T15:16:09.633Z,98909.63
2023-01-18T15:18:42.983Z,98914.66
2023-01-18T15:21:17.870Z,98915.78
2023-01-18T15:23:47.963Z,98925.97
2023-01-18T15:26:16.087Z,98924.59
2023-01-18T15:28:44.403Z,98929.47
2023-01-18T15:31:15.399Z,98935.47
2023-01-18T15:33:46.610Z,98946.03
2023-01-18T15:36:16.015Z,98932.25
2023-01-18T15:38:44.378Z,98939.47
2023-01-18T15:41:15.682Z,98936.66
2023-01-18T15:43:46.045Z,98943.19
2023-01-18T15:46:17.018Z,98943.97
2023-01-18T15:48:52.124Z,98945.16
2023-01-18T15:51:41.815Z,98951.81
2023-01-18T15:54:13.111Z,98956.03
2023-01-18T15:56:41.577Z,98959.84
2023-01-18T15:59:12.614Z,98962.59
2023-01-18T16:01:42.164Z,98965.75
2023-01-18T16:04:23.750Z,98963.44
2023-01-18T16:06:52.039Z,98966.16
2023-01-18T16:09:23.604Z,98970.66
2023-01-18T16:11:56.956Z,98960.25
2023-01-18T16:14:33.515Z,98977.84
2023-01-18T16:17:09.371Z,98987.25
2023-01-18T16:19:43.477Z,98984.88
2023-01-18T16:22:20.681Z,98984.41
2023-01-18T16:24:53.484Z,98996.72
2023-01-18T16:27:23.439Z,99005.78
2023-01-18T16:29:55.754Z,98994.75
2023-01-18T16:32:33.389Z,99007.75
2023-01-18T16:35:14.001Z,99008.84
2023-01-18T16:37:46.712Z,99013.63
2023-01-18T16:40:16.430Z,99023.63
2023-01-18T16:43:01.196Z,99027.66
2023-01-18T16:45:31.263Z,99034.84
2023-01-18T16:47:59.882Z,99033.97
2023-01-18T16:50:29.857Z,99045.69
2023-01-18T16:52:58.408Z,99038.59
2023-01-18T16:56:34.435Z,99041.66
2023-01-18T16:59:08.213Z,99044.66
2023-01-18T17:01:38.925Z,99051.16
2023-01-18T17:04:09.681Z,99060.09
2023-01-18T17:06:38.724Z,99060.88
2023-01-18T17:09:19.915Z,99059.13
2023-01-18T17:11:50.856Z,99065.59
2023-01-18T17:14:19.351Z,99075.03
2023-01-18T17:16:50.807Z,99077.06
2023-01-18T17:19:23.612Z,99081.28
2023-01-18T17:21:52.445Z,99093.91
2023-01-18T17:24:22.670Z,99095.66
2023-01-18T17:26:55.104Z,99096.44
2023-01-18T17:29:24.042Z,99100.66
2023-01-18T17:31:53.528Z,99110.34
2023-01-18T17:34:28.609Z,99112.59
2023-01-18T17:36:59.000Z,99114.78
2023-01-18T17:39:37.436Z,99117.97
2023-01-18T17:42:22.828Z,99117.28
2023-01-18T17:45:02.829Z,99122.00
2023-01-18T17:47:34.636Z,99124.75
2023-01-18T17:50:08.691Z,99123.28
2023-01-18T17:52:37.999Z,99131.72
2023-01-18T17:55:08.149Z,99132.94
2023-01-18T17:57:38.061Z,99136.09
2023-01-18T18:00:09.297Z,99134.81
2023-01-18T18:02:37.934Z,99134.03
2023-01-18T18:05:07.446Z,99137.53
2023-01-18T18:07:36.374Z,99140.94
2023-01-18T18:10:06.087Z,99146.25
2023-01-18T18:12:37.772Z,99149.34
2023-01-18T18:15:08.347Z,99147.59
2023-01-18T18:17:38.119Z,99148.81
2023-01-18T18:20:10.948Z,99151.13
2023-01-18T18:22:41.312Z,99153.13
2023-01-18T18:25:11.160Z,99163.31
2023-01-18T18:27:45.709Z,99165.31
2023-01-18T18:30:15.618Z,99170.25
2023-01-18T18:32:44.732Z,99173.47
2023-01-18T18:35:25.064Z,99175.69
2023-01-18T18:37:55.749Z,99180.63
2023-01-18T18:40:27.450Z,99183.84
2023-01-18T18:43:02.272Z,99188.81
2023-01-18T18:45:32.413Z,99179.69
2023-01-18T18:48:01.664Z,99190.31
2023-01-18T18:50:32.987Z,99196.47
2023-01-18T18:53:01.947Z,99200.44
2023-01-18T18:55:30.515Z,99204.16
2023-01-18T18:58:00.210Z,99207.09
2023-01-18T19:00:34.400Z,99209.56
2023-01-18T19:03:11.553Z,99210.31
2023-01-18T19:05:40.078Z,99214.50
2023-01-18T19:08:08.305Z,99228.59
2023-01-18T19:10:36.779Z,99229.31
2023-01-18T19:13:07.407Z,99235.72
2023-01-18T19:15:36.025Z,99231.56
2023-01-18T19:18:04.457Z,99236.22
2023-01-18T19:20:33.301Z,99240.16
2023-01-18T19:23:04.389Z,99244.13
2023-01-18T19:25:33.628Z,99249.28
2023-01-18T19:28:01.783Z,99257.69
2023-01-18T19:30:33.136Z,99254.47
2023-01-18T19:33:03.113Z,99255.69
2023-01-18T19:35:34.291Z,99255.94
2023-01-18T19:38:02.544Z,99262.63
2023-01-18T19:40:30.841Z,99258.91
2023-01-18T19:43:00.282Z,99267.06
2023-01-18T19:45:29.150Z,99273.47
2023-01-18T19:48:02.156Z,99271.97
2023-01-18T19:50:31.208Z,99271.00
2023-01-18T19:53:01.032Z,99279.84
2023-01-18T19:55:31.544Z,99273.66
2023-01-18T19:58:02.055Z,99280.56
2023-01-18T20:00:30.740Z,99278.56
2023-01-18T20:03:01.179Z,99279.06
2023-01-18T20:05:29.559Z,99283.78
2023-01-18T20:07:58.807Z,99285.25
2023-01-18T20:10:28.855Z,99282.06
2023-01-18T20:12:57.536Z,99285.72
2023-01-18T20:15:26.322Z,99293.59
2023-01-18T20:17:54.808Z,99291.88
2023-01-18T20:20:32.561Z,99294.81
2023-01-18T20:23:04.137Z,99297.75
2023-01-18T20:25:33.903Z,99301.72
2023-01-18T20:28:02.363Z,99304.91
2023-01-18T20:30:30.963Z,99307.38
2023-01-18T20:32:59.553Z,99312.56
2023-01-18T20:35:30.905Z,99316.53
2023-01-18T20:37:59.190Z,99326.66
2023-01-18T20:40:27.519Z,99318.78
2023-01-18T20:42:55.904Z,99323.72
2023-01-18T20:45:24.103Z,99340.25
2023-01-18T20:47:53.002Z,99334.78
2023-01-18T20:50:23.364Z,99338.75
2023-01-18T20:52:54.126Z,99346.09
2023-01-18T20:55:23.427Z,99349.78
2023-01-18T20:57:52.717Z,99357.16
2023-01-18T21:00:21.697Z,99358.13
2023-01-18T21:02:50.485Z,99359.34
2023-01-18T21:05:19.246Z,99370.69
2023-01-18T21:07:47.813Z,99376.34
2023-01-18T21:10:18.230Z,99381.97
2023-01-18T21:12:48.285Z,99375.28
2023-01-18T21:15:17.514Z,99382.94
2023-01-18T21:17:45.871Z,99381.47
2023-01-18T21:20:14.748Z,99377.56
2023-01-18T21:22:43.303Z,99383.94
2023-01-18T21:25:12.196Z,99380.03
2023-01-18T21:27:43.711Z,99386.66
2023-01-18T21:30:13.489Z,99391.88
2023-01-18T21:32:42.713Z,99380.75
2023-01-18T21:35:11.776Z,99388.63
2023-01-18T21:37:40.723Z,99388.91
2023-01-18T21:40:13.250Z,99395.28
2023-01-18T21:43:00.787Z,99399.00
2023-01-18T21:45:47.096Z,99386.44
2023-01-18T21:48:16.037Z,99405.44
2023-01-18T21:51:01.853Z,99401.22
2023-01-18T21:53:49.683Z,99407.88
2023-01-18T21:56:18.042Z,99404.47
2023-01-18T21:58:54.243Z,99407.97
2023-01-18T22:01:25.417Z,99410.16
2023-01-18T22:04:14.224Z,99407.72
2023-01-18T22:06:42.403Z,99417.16
2023-01-18T22:09:10.769Z,99425.56
2023-01-18T22:11:39.042Z,99425.06
2023-01-18T22:14:10.214Z,99425.28
2023-01-18T22:16:39.912Z,99423.28
2023-01-18T22:19:09.685Z,99428.25
2023-01-18T22:21:38.312Z,99423.56
2023-01-18T22:24:07.811Z,99431.22
2023-01-18T22:26:36.541Z,99433.50
2023-01-18T22:29:04.755Z,99436.19
2023-01-18T22:31:34.768Z,99441.88
2023-01-18T22:34:05.408Z,99443.69
2023-01-18T22:36:35.273Z,99439.72
2023-01-18T22:39:03.461Z,99448.31
2023-01-18T22:41:31.612Z,99452.28
2023-01-18T22:44:00.119Z,99443.91
2023-01-18T22:46:28.531Z,99450.53
2023-01-18T22:48:59.548Z,99459.69
2023-01-18T22:51:28.499Z,99458.97
2023-01-18T22:53:57.521Z,99456.00
2023-01-18T22:56:27.252Z,99459.97
2023-01-18T22:58:55.329Z,99464.66
2023-01-18T23:01:26.220Z,99464.44
2023-01-18T23:03:58.145Z,99477.75
2023-01-18T23:06:29.517Z,99483.19
2023-01-18T23:08:59.363Z,99487.63
2023-01-18T23:11:30.679Z,99482.22
2023-01-18T23:14:16.736Z,99483.22
2023-01-18T23:17:03.928Z,99488.91
2023-01-18T23:19:33.372Z,99488.19
2023-01-18T23:22:06.994Z,99481.31
2023-01-18T23:24:35.900Z,99492.94
2023-01-18T23:27:05.848Z,99487.25
2023-01-18T23:29:34.710Z,99488.50
2023-01-18T23:32:02.855Z,99489.00
2023-01-18T23:34:31.041Z,99494.66
2023-01-18T23:36:59.432Z,99494.44
2023-01-18T23:39:46.655Z,99485.78
2023-01-18T23:42:32.714Z,99491.94
2023-01-18T23:45:18.751Z,99496.59
2023-01-18T23:48:04.739Z,99485.78
2023-01-18T23:50:50.579Z,99493.94
2023-01-18T23:53:36.329Z,99507.25
2023-01-18T23:56:06.326Z,99492.16
2023-01-18T23:58:34.874Z,99505.00
